Souk-El Arba, Tunisia
Current Conditions -  °F | °C
As of 7:00 PM on Thursday 27 Nov 2014 (Local Time) from DTTN Reporting Station
Clear Clear  
Wind Chill: 66°   Ceiling: Unl
Heat Index: 66°   Visibility: 6mi
Dew Point: 57°   Wind: 2mph
Humidity: 73%   Direction: 250°WSW
Pressure: 29.77"   Gusts: NA
Location:  36.5°N, 8.77°E
Report Text: DTTN 271800Z 25002KT CAVOK 19/14 Q1008
Loading
Personal Weather Stations






























Interactive Weather Map New forecast layout! Learn more

10-Day Weather Forecast

Advertisements
Track Severe Weather on mobile